createdAt,value
2022-10-11T00:01:34.493Z,3.22
2022-10-11T00:04:01.274Z,2.10
2022-10-11T00:06:27.793Z,2.72
2022-10-11T00:08:54.258Z,2.50
2022-10-11T00:11:20.741Z,2.13
2022-10-11T00:13:47.240Z,2.17
2022-10-11T00:16:15.314Z,1.77
2022-10-11T00:18:42.363Z,2.22
2022-10-11T00:21:13.046Z,1.98
2022-10-11T00:23:40.644Z,1.95
2022-10-11T00:26:10.107Z,1.55
2022-10-11T00:28:37.230Z,1.80
2022-10-11T00:31:11.478Z,1.90
2022-10-11T00:33:38.051Z,2.10
2022-10-11T00:36:05.254Z,1.35
2022-10-11T00:38:32.555Z,1.67
2022-10-11T00:40:59.691Z,2.00
2022-10-11T00:43:29.166Z,1.13
2022-10-11T00:45:55.503Z,1.55
2022-10-11T00:48:43.672Z,1.60
2022-10-11T00:51:43.107Z,1.73
2022-10-11T00:54:15.101Z,1.58
2022-10-11T00:56:44.077Z,1.27
2022-10-11T00:59:14.379Z,1.90
2022-10-11T01:01:41.039Z,1.50
2022-10-11T01:04:07.709Z,1.55
2022-10-11T01:06:35.053Z,1.70
2022-10-11T01:09:01.790Z,1.60
2022-10-11T01:11:31.087Z,1.75
2022-10-11T01:14:15.827Z,1.70
2022-10-11T01:16:55.059Z,1.40
2022-10-11T01:19:43.421Z,1.83
2022-10-11T01:22:28.736Z,1.45
2022-10-11T01:25:21.217Z,1.75
2022-10-11T01:28:06.711Z,1.52
2022-10-11T01:33:25.116Z,1.60
2022-10-11T01:36:01.334Z,1.75
2022-10-11T01:38:37.093Z,1.77
2022-10-11T01:41:10.654Z,2.15
2022-10-11T01:43:40.241Z,1.98
2022-10-11T01:46:08.757Z,2.03
2022-10-11T01:48:50.446Z,1.77
2022-10-11T01:51:21.911Z,2.92
2022-10-11T01:54:01.536Z,2.33
2022-10-11T01:56:46.297Z,2.10
2022-10-11T01:59:35.265Z,2.22
2022-10-11T02:02:27.251Z,2.08
2022-10-11T02:05:02.621Z,2.45
2022-10-11T02:07:49.344Z,2.17
2022-10-11T02:10:26.697Z,1.90
2022-10-11T02:13:00.726Z,2.22
2022-10-11T02:15:30.563Z,2.20
2022-10-11T02:18:00.937Z,3.42
2022-10-11T02:20:30.120Z,2.30
2022-10-11T02:23:01.796Z,2.22
2022-10-11T02:25:32.669Z,2.28
2022-10-11T02:28:02.543Z,2.05
2022-10-11T02:30:30.717Z,3.00
2022-10-11T02:32:58.808Z,3.38
2022-10-11T02:35:29.803Z,3.28
2022-10-11T02:38:05.528Z,2.97
2022-10-11T02:40:41.484Z,3.72
2022-10-11T02:43:13.274Z,3.17
2022-10-11T02:45:48.303Z,2.97
2022-10-11T02:48:15.531Z,2.90
2022-10-11T02:50:42.724Z,3.05
2022-10-11T02:53:09.798Z,2.80
2022-10-11T02:55:36.607Z,2.90
2022-10-11T02:58:03.818Z,3.80
2022-10-11T03:00:30.643Z,2.78
2022-10-11T03:02:57.030Z,2.60
2022-10-11T03:05:23.585Z,3.45
2022-10-11T03:07:50.049Z,3.70
2022-10-11T03:10:16.806Z,2.88
2022-10-11T03:12:43.352Z,2.92
2022-10-11T03:15:10.418Z,3.42
2022-10-11T03:17:37.566Z,3.30
2022-10-11T03:20:06.035Z,3.42
2022-10-11T03:22:32.612Z,3.20
2022-10-11T03:25:03.616Z,3.28
2022-10-11T03:27:31.493Z,4.00
2022-10-11T03:29:57.999Z,3.50
2022-10-11T03:32:24.767Z,2.95
2022-10-11T03:34:51.248Z,3.25
2022-10-11T03:37:18.293Z,3.25
2022-10-11T03:39:45.657Z,3.33
2022-10-11T03:42:13.531Z,2.75
2022-10-11T03:44:41.564Z,3.13
2022-10-11T03:47:08.436Z,3.45
2022-10-11T03:49:36.144Z,3.55
2022-10-11T03:52:05.158Z,3.20
2022-10-11T03:54:31.746Z,3.47
2022-10-11T03:56:58.694Z,3.17
2022-10-11T03:59:25.254Z,3.03
2022-10-11T04:01:51.678Z,3.55
2022-10-11T04:04:18.231Z,3.40
2022-10-11T04:06:44.666Z,3.50
2022-10-11T04:09:11.096Z,3.95
2022-10-11T04:11:37.499Z,3.90
2022-10-11T04:14:03.934Z,3.72
2022-10-11T04:16:30.358Z,3.58
2022-10-11T04:18:56.803Z,3.80
2022-10-11T04:21:23.259Z,3.58
2022-10-11T04:23:49.671Z,3.65
2022-10-11T04:26:16.201Z,3.40
2022-10-11T04:28:42.661Z,3.78
2022-10-11T04:31:09.122Z,3.78
2022-10-11T04:33:35.877Z,5.25
2022-10-11T04:36:02.933Z,4.20
2022-10-11T04:38:29.601Z,4.47
2022-10-11T04:40:56.058Z,4.05
2022-10-11T04:43:22.499Z,4.55
2022-10-11T04:45:52.334Z,5.22
2022-10-11T04:48:21.802Z,4.05
2022-10-11T04:50:48.314Z,4.13
2022-10-11T04:53:14.803Z,4.25
2022-10-11T04:55:41.224Z,4.20
2022-10-11T04:58:07.657Z,3.95
2022-10-11T05:00:34.174Z,4.82
2022-10-11T05:03:00.781Z,4.80
2022-10-11T05:05:27.252Z,5.43
2022-10-11T05:07:53.644Z,5.25
2022-10-11T05:10:20.118Z,6.25
2022-10-11T05:12:46.560Z,6.63
2022-10-11T05:15:13.203Z,6.30
2022-10-11T05:17:39.573Z,6.50
2022-10-11T05:20:06.822Z,6.47
2022-10-11T05:22:33.664Z,5.90
2022-10-11T05:25:00.112Z,7.00
2022-10-11T05:27:26.539Z,6.60
2022-10-11T05:29:53.016Z,7.63
2022-10-11T05:32:19.490Z,8.20
2022-10-11T05:34:45.946Z,11.45
2022-10-11T05:37:12.434Z,10.02
2022-10-11T05:39:38.810Z,9.30
2022-10-11T05:42:09.593Z,10.00
2022-10-11T05:44:36.347Z,10.43
2022-10-11T05:47:03.238Z,9.80
2022-10-11T05:49:29.834Z,9.52
2022-10-11T05:51:56.609Z,8.90
2022-10-11T05:54:23.230Z,8.50
2022-10-11T05:56:49.653Z,8.45
2022-10-11T05:59:16.097Z,8.43
2022-10-11T06:01:42.563Z,8.13
2022-10-11T06:04:09.190Z,8.02
2022-10-11T06:06:35.589Z,7.63
2022-10-11T06:09:01.994Z,8.57
2022-10-11T06:11:28.453Z,8.95
2022-10-11T06:13:56.248Z,7.70
2022-10-11T06:16:22.839Z,7.13
2022-10-11T06:18:49.368Z,7.45
2022-10-11T06:21:15.784Z,7.28
2022-10-11T06:23:42.259Z,6.75
2022-10-11T06:26:10.363Z,7.43
2022-10-11T06:28:37.412Z,8.55
2022-10-11T06:31:05.832Z,7.95
2022-10-11T06:33:32.685Z,7.53
2022-10-11T06:36:02.432Z,7.35
2022-10-11T06:38:31.910Z,7.82
2022-10-11T06:40:58.352Z,7.38
2022-10-11T06:43:25.340Z,7.40
2022-10-11T06:45:51.819Z,8.15
2022-10-11T06:48:18.277Z,7.68
2022-10-11T06:50:59.458Z,7.30
2022-10-11T06:53:27.886Z,7.32
2022-10-11T06:55:54.249Z,7.68
2022-10-11T06:58:20.703Z,7.93
2022-10-11T07:00:47.122Z,7.75
2022-10-11T07:03:13.728Z,7.30
2022-10-11T07:05:40.090Z,8.00
2022-10-11T07:08:06.522Z,7.07
2022-10-11T07:10:32.881Z,7.15
2022-10-11T07:12:59.294Z,7.43
2022-10-11T07:15:25.727Z,7.03
2022-10-11T07:17:52.103Z,7.28
2022-10-11T07:20:18.529Z,7.38
2022-10-11T07:22:44.918Z,6.75
2022-10-11T07:25:11.332Z,8.15
2022-10-11T07:27:37.726Z,7.45
2022-10-11T07:30:04.574Z,8.45
2022-10-11T07:32:31.309Z,7.97
2022-10-11T07:34:57.790Z,7.53
2022-10-11T07:37:24.262Z,7.82
2022-10-11T07:39:50.871Z,7.50
2022-10-11T07:42:17.344Z,7.82
2022-10-11T07:44:43.812Z,7.95
2022-10-11T07:47:11.412Z,8.55
2022-10-11T07:49:38.009Z,7.45
2022-10-11T07:52:04.578Z,7.57
2022-10-11T07:54:31.252Z,7.78
2022-10-11T07:56:57.645Z,8.73
2022-10-11T07:59:24.122Z,9.70
2022-10-11T08:01:50.586Z,9.13
2022-10-11T08:04:17.037Z,10.75
2022-10-11T08:06:43.546Z,9.45
2022-10-11T08:09:10.362Z,10.50
2022-10-11T08:11:37.985Z,10.80
2022-10-11T08:14:08.715Z,10.38
2022-10-11T08:16:36.188Z,10.90
2022-10-11T08:19:03.367Z,11.35
2022-10-11T08:21:30.116Z,12.13
2022-10-11T08:23:56.701Z,12.65
2022-10-11T08:26:23.171Z,14.50
2022-10-11T08:28:49.769Z,14.13
2022-10-11T08:31:16.773Z,13.25
2022-10-11T08:33:43.669Z,13.38
2022-10-11T08:36:11.454Z,13.30
2022-10-11T08:38:39.547Z,14.23
2022-10-11T08:41:26.946Z,14.82
2022-10-11T08:44:15.225Z,13.70
2022-10-11T08:46:45.687Z,14.10
2022-10-11T08:49:15.368Z,16.15
2022-10-11T08:51:52.671Z,18.27
2022-10-11T08:54:27.169Z,17.80
2022-10-11T08:56:53.825Z,20.25
2022-10-11T08:59:36.604Z,20.27
2022-10-11T09:02:23.299Z,19.98
2022-10-11T09:04:53.605Z,21.15
2022-10-11T09:07:43.997Z,22.25
2022-10-11T09:10:38.181Z,21.42
2022-10-11T09:13:31.456Z,22.15
2022-10-11T09:16:15.998Z,22.67
2022-10-11T09:18:45.491Z,22.98
2022-10-11T09:21:39.950Z,24.08
2022-10-11T09:24:24.915Z,22.25
2022-10-11T09:26:56.127Z,23.35
2022-10-11T09:29:37.542Z,22.73
2022-10-11T09:32:14.874Z,22.48
2022-10-11T09:34:41.995Z,23.73
2022-10-11T09:37:23.466Z,22.65
2022-10-11T09:40:10.375Z,25.02
2022-10-11T09:42:36.843Z,24.52
2022-10-11T09:45:20.918Z,24.67
2022-10-11T09:47:51.049Z,27.35
2022-10-11T09:50:23.242Z,26.73
2022-10-11T09:52:56.072Z,25.80
2022-10-11T09:55:39.558Z,25.80
2022-10-11T09:58:40.390Z,25.95
2022-10-11T10:01:08.582Z,27.35
2022-10-11T10:03:37.809Z,27.75
2022-10-11T10:06:32.207Z,26.08
2022-10-11T10:09:30.459Z,26.25
2022-10-11T10:11:57.840Z,25.60
2022-10-11T10:14:28.216Z,26.27
2022-10-11T10:17:18.182Z,25.27
2022-10-11T10:19:54.787Z,24.58
2022-10-11T10:22:29.614Z,24.50
2022-10-11T10:24:59.944Z,24.55
2022-10-11T10:27:30.642Z,26.55
2022-10-11T10:30:08.136Z,25.52
2022-10-11T10:32:43.747Z,26.35
2022-10-11T10:35:28.920Z,24.15
2022-10-11T10:38:01.138Z,24.35
2022-10-11T10:40:47.805Z,25.52
2022-10-11T10:43:17.192Z,28.70
2022-10-11T10:46:03.439Z,26.17
2022-10-11T10:49:23.291Z,27.85
2022-10-11T10:51:47.739Z,25.92
2022-10-11T10:54:20.232Z,25.33
2022-10-11T10:56:55.634Z,25.77
2022-10-11T10:59:46.993Z,25.08
2022-10-11T11:02:39.643Z,26.63
2022-10-11T11:05:44.522Z,27.20
2022-10-11T11:08:26.805Z,25.38
2022-10-11T11:11:26.787Z,26.50
2022-10-11T11:14:14.233Z,24.95
2022-10-11T11:16:48.148Z,24.55
2022-10-11T11:19:42.531Z,24.50
2022-10-11T11:22:32.830Z,24.50
2022-10-11T11:25:18.185Z,23.80
2022-10-11T11:30:29.995Z,21.10
2022-10-11T11:33:22.454Z,22.20
2022-10-11T11:35:53.623Z,23.27
2022-10-11T11:38:51.019Z,23.40
2022-10-11T11:41:28.408Z,23.08
2022-10-11T11:44:12.902Z,22.65
2022-10-11T11:46:50.258Z,22.00
2022-10-11T11:49:46.022Z,22.85
2022-10-11T11:52:36.303Z,22.90
2022-10-11T11:55:07.460Z,22.40
2022-10-11T11:57:53.547Z,21.08
2022-10-11T12:00:22.301Z,21.55
2022-10-11T12:03:08.849Z,20.20
2022-10-11T12:05:36.658Z,20.38
2022-10-11T12:08:07.344Z,20.60
2022-10-11T12:10:55.548Z,19.05
2022-10-11T12:13:36.138Z,18.20
2022-10-11T12:16:12.540Z,16.83
2022-10-11T12:18:57.261Z,12.70
2022-10-11T12:21:31.872Z,10.73
2022-10-11T12:26:29.370Z,11.27
2022-10-11T12:29:18.095Z,7.57
2022-10-11T12:31:47.291Z,9.40
2022-10-11T12:34:30.980Z,10.63
2022-10-11T12:36:57.443Z,10.52
2022-10-11T12:39:23.808Z,10.77
2022-10-11T12:41:50.374Z,9.85
2022-10-11T12:44:22.372Z,9.68
2022-10-11T12:46:54.741Z,8.73
2022-10-11T12:49:25.576Z,8.77
2022-10-11T12:52:13.737Z,9.40
2022-10-11T12:54:54.731Z,7.28
2022-10-11T12:57:30.351Z,6.97
2022-10-11T13:00:18.182Z,7.18
2022-10-11T13:02:44.914Z,6.28
2022-10-11T13:05:26.150Z,5.85
2022-10-11T13:07:59.158Z,5.30
2022-10-11T13:10:38.425Z,5.68
2022-10-11T13:13:20.227Z,5.40
2022-10-11T13:15:47.033Z,5.35
2022-10-11T13:18:16.429Z,5.65
2022-10-11T13:20:42.989Z,6.15
2022-10-11T13:23:27.095Z,5.78
2022-10-11T13:25:54.509Z,5.50
2022-10-11T13:28:22.135Z,5.85
2022-10-11T13:30:52.866Z,5.60
2022-10-11T13:33:24.910Z,5.15
2022-10-11T13:35:52.771Z,4.97
2022-10-11T13:38:26.394Z,5.93
2022-10-11T13:40:52.900Z,5.13
2022-10-11T13:43:21.939Z,5.57
2022-10-11T13:45:48.517Z,5.40
2022-10-11T13:48:16.429Z,5.43
2022-10-11T13:50:46.510Z,5.72
2022-10-11T13:53:12.895Z,6.45
2022-10-11T13:55:41.967Z,5.70
2022-10-11T13:58:23.556Z,5.68
2022-10-11T14:00:59.088Z,5.70
2022-10-11T14:03:43.450Z,5.97
2022-10-11T14:06:10.297Z,5.72
2022-10-11T14:08:47.845Z,5.25
2022-10-11T14:11:15.487Z,6.20
2022-10-11T14:13:44.987Z,5.35
2022-10-11T14:16:13.980Z,5.35
2022-10-11T14:18:48.981Z,5.95
2022-10-11T14:21:24.713Z,5.53
2022-10-11T14:23:57.937Z,4.50
2022-10-11T14:26:26.204Z,4.72
2022-10-11T14:29:04.822Z,5.00
2022-10-11T14:31:31.486Z,5.00
2022-10-11T14:33:58.511Z,5.50
2022-10-11T14:36:26.018Z,4.43
2022-10-11T14:38:53.253Z,4.88
2022-10-11T14:41:19.952Z,4.60
2022-10-11T14:43:46.498Z,4.05
2022-10-11T14:46:23.094Z,4.47
2022-10-11T14:48:55.632Z,4.25
2022-10-11T14:51:27.767Z,4.07
2022-10-11T14:53:54.338Z,4.50
2022-10-11T14:56:23.755Z,4.03
2022-10-11T14:58:55.915Z,3.75
2022-10-11T15:01:22.434Z,3.80
2022-10-11T15:03:49.115Z,4.72
2022-10-11T15:06:19.442Z,3.92
2022-10-11T15:08:46.283Z,4.03
2022-10-11T15:11:15.493Z,4.10
2022-10-11T15:13:41.878Z,4.00
2022-10-11T15:16:08.997Z,4.00
2022-10-11T15:18:35.562Z,4.32
2022-10-11T15:21:02.269Z,4.28
2022-10-11T15:23:28.953Z,4.10
2022-10-11T15:25:55.767Z,3.78
2022-10-11T15:28:31.348Z,3.90
2022-10-11T15:30:58.615Z,3.80
2022-10-11T15:33:25.298Z,5.03
2022-10-11T15:35:52.096Z,4.38
2022-10-11T15:38:21.040Z,4.43
2022-10-11T15:40:48.713Z,4.65
2022-10-11T15:43:15.849Z,4.38
2022-10-11T15:45:43.042Z,4.40
2022-10-11T15:48:15.523Z,4.82
2022-10-11T15:50:42.456Z,4.82
2022-10-11T15:53:18.218Z,4.57
2022-10-11T15:55:47.079Z,4.82
2022-10-11T15:58:20.472Z,4.78
2022-10-11T16:00:48.576Z,4.40
2022-10-11T16:03:16.064Z,4.13
2022-10-11T16:05:43.036Z,4.50
2022-10-11T16:08:10.595Z,4.72
2022-10-11T16:10:37.466Z,4.38
2022-10-11T16:13:04.255Z,4.93
2022-10-11T16:15:30.834Z,4.93
2022-10-11T16:17:57.334Z,4.20
2022-10-11T16:20:25.673Z,4.78
2022-10-11T16:22:54.042Z,4.10
2022-10-11T16:25:24.063Z,4.03
2022-10-11T16:27:51.655Z,4.15
2022-10-11T16:30:19.748Z,4.20
2022-10-11T16:32:46.650Z,3.92
2022-10-11T16:35:14.862Z,4.53
2022-10-11T16:37:41.400Z,4.97
2022-10-11T16:40:08.689Z,4.30
2022-10-11T16:42:35.382Z,5.25
2022-10-11T16:45:01.755Z,5.70
2022-10-11T16:47:28.179Z,6.63
2022-10-11T16:49:54.569Z,8.43
2022-10-11T16:52:21.166Z,10.55
2022-10-11T16:54:47.900Z,9.27
2022-10-11T16:57:16.515Z,9.02
2022-10-11T16:59:43.130Z,7.60
2022-10-11T17:02:16.514Z,7.38
2022-10-11T17:04:43.109Z,6.30
2022-10-11T17:07:12.855Z,5.32
2022-10-11T17:09:43.943Z,5.70
2022-10-11T17:12:13.149Z,5.22
2022-10-11T17:14:40.788Z,4.60
2022-10-11T17:17:09.590Z,5.38
2022-10-11T17:19:42.584Z,4.55
2022-10-11T17:22:12.380Z,5.40
2022-10-11T17:24:39.318Z,4.57
2022-10-11T17:27:06.634Z,4.60
2022-10-11T17:29:33.893Z,4.55
2022-10-11T17:32:00.838Z,4.70
2022-10-11T17:34:27.528Z,3.90
2022-10-11T17:36:54.008Z,4.60
2022-10-11T17:39:22.418Z,4.72
2022-10-11T17:41:49.730Z,4.30
2022-10-11T17:44:19.568Z,4.07
2022-10-11T17:46:46.611Z,4.72
2022-10-11T17:49:13.965Z,4.57
2022-10-11T17:51:41.504Z,4.05
2022-10-11T17:54:12.352Z,3.90
2022-10-11T17:56:40.872Z,4.10
2022-10-11T17:59:08.709Z,4.50
2022-10-11T18:01:35.640Z,3.97
2022-10-11T18:04:04.228Z,3.58
2022-10-11T18:06:33.782Z,4.00
2022-10-11T18:09:02.056Z,3.70
2022-10-11T18:11:28.888Z,3.75
2022-10-11T18:13:55.609Z,4.05
2022-10-11T18:16:24.048Z,3.75
2022-10-11T18:18:50.570Z,4.13
2022-10-11T18:21:18.618Z,4.38
2022-10-11T18:23:45.533Z,4.35
2022-10-11T18:26:17.336Z,4.07
2022-10-11T18:28:44.626Z,3.92
2022-10-11T18:31:17.334Z,3.50
2022-10-11T18:33:45.973Z,3.50
2022-10-11T18:36:15.229Z,3.78
2022-10-11T18:38:46.287Z,4.03
2022-10-11T18:41:15.791Z,4.18
2022-10-11T18:43:42.267Z,4.47
2022-10-11T18:46:13.969Z,3.92
2022-10-11T18:48:42.058Z,4.50
2022-10-11T18:51:14.865Z,4.20
2022-10-11T18:53:42.294Z,3.97
2022-10-11T18:56:11.329Z,4.03
2022-10-11T18:58:39.207Z,4.15
2022-10-11T19:01:20.413Z,4.13
2022-10-11T19:03:49.045Z,3.47
2022-10-11T19:06:17.757Z,4.38
2022-10-11T19:08:45.930Z,3.25
2022-10-11T19:11:13.998Z,3.47
2022-10-11T19:13:40.619Z,4.15
2022-10-11T19:16:08.464Z,3.28
2022-10-11T19:18:35.437Z,3.45
2022-10-11T19:21:11.726Z,3.47
2022-10-11T19:23:43.154Z,3.30
2022-10-11T19:26:18.186Z,3.25
2022-10-11T19:28:45.751Z,3.45
2022-10-11T19:31:16.804Z,2.90
2022-10-11T19:33:45.178Z,2.88
2022-10-11T19:36:16.427Z,3.17
2022-10-11T19:38:45.880Z,3.33
2022-10-11T19:41:13.782Z,3.70
2022-10-11T19:43:40.601Z,3.33
2022-10-11T19:46:10.170Z,3.40
2022-10-11T19:48:38.125Z,3.33
2022-10-11T19:51:13.980Z,3.25
2022-10-11T19:53:41.330Z,3.40
2022-10-11T19:56:12.046Z,3.60
2022-10-11T19:58:38.899Z,3.00
2022-10-11T20:01:10.263Z,3.97
2022-10-11T20:03:38.116Z,4.20
2022-10-11T20:06:09.189Z,3.15
2022-10-11T20:08:42.679Z,3.42
2022-10-11T20:11:09.853Z,3.30
2022-10-11T20:13:37.315Z,2.97
2022-10-11T20:16:10.338Z,3.38
2022-10-11T20:18:40.385Z,3.28
2022-10-11T20:21:09.701Z,3.85
2022-10-11T20:23:36.163Z,3.38
2022-10-11T20:26:06.822Z,3.53
2022-10-11T20:28:34.447Z,2.95
2022-10-11T20:31:03.187Z,3.83
2022-10-11T20:33:32.020Z,3.47
2022-10-11T20:36:07.056Z,3.80
2022-10-11T20:38:35.222Z,3.53
2022-10-11T20:41:10.355Z,3.92
2022-10-11T20:46:12.384Z,3.92
2022-10-11T20:48:43.164Z,4.68
2022-10-11T20:51:10.743Z,3.58
2022-10-11T20:53:38.503Z,3.55
2022-10-11T20:56:09.555Z,3.72
2022-10-11T20:58:36.060Z,3.67
2022-10-11T21:01:39.529Z,3.65
2022-10-11T21:04:07.940Z,3.65
2022-10-11T21:06:34.625Z,3.47
2022-10-11T21:09:39.299Z,3.60
2022-10-11T21:12:06.175Z,3.08
2022-10-11T21:14:32.587Z,3.30
2022-10-11T21:16:59.031Z,4.20
2022-10-11T21:19:25.399Z,3.58
2022-10-11T21:21:53.818Z,3.78
2022-10-11T21:24:20.674Z,3.42
2022-10-11T21:26:47.727Z,3.78
2022-10-11T21:29:14.292Z,4.90
2022-10-11T21:31:40.918Z,3.80
2022-10-11T21:34:07.455Z,3.30
2022-10-11T21:36:34.282Z,3.03
2022-10-11T21:39:00.674Z,3.05
2022-10-11T21:41:30.005Z,3.40
2022-10-11T21:43:57.204Z,3.17
2022-10-11T21:46:41.747Z,3.45
2022-10-11T21:49:12.638Z,3.58
2022-10-11T21:51:39.039Z,3.33
2022-10-11T21:54:05.740Z,3.58
2022-10-11T21:56:32.222Z,4.70
2022-10-11T21:58:58.745Z,3.15
2022-10-11T22:01:25.233Z,3.50
2022-10-11T22:03:54.012Z,3.80
2022-10-11T22:06:21.359Z,3.03
2022-10-11T22:08:48.899Z,3.40
2022-10-11T22:11:15.562Z,3.85
2022-10-11T22:13:42.433Z,3.20
2022-10-11T22:16:11.757Z,3.80
2022-10-11T22:18:38.465Z,3.45
2022-10-11T22:21:13.336Z,3.95
2022-10-11T22:23:41.265Z,3.80
2022-10-11T22:26:10.156Z,3.40
2022-10-11T22:28:36.748Z,3.65
2022-10-11T22:31:05.447Z,3.75
2022-10-11T22:33:32.293Z,3.47
2022-10-11T22:36:00.479Z,3.20
2022-10-11T22:38:27.387Z,3.97
2022-10-11T22:40:54.343Z,3.28
2022-10-11T22:43:20.853Z,3.80
2022-10-11T22:45:47.257Z,3.47
2022-10-11T22:48:13.680Z,3.95
2022-10-11T22:50:40.247Z,3.08
2022-10-11T22:53:07.816Z,3.13
2022-10-11T22:55:34.582Z,2.95
2022-10-11T22:58:01.245Z,3.97
2022-10-11T23:00:27.678Z,3.13
2022-10-11T23:02:54.097Z,3.53
2022-10-11T23:05:20.499Z,3.80
2022-10-11T23:07:47.254Z,3.40
2022-10-11T23:10:14.067Z,3.20
2022-10-11T23:12:40.672Z,3.30
2022-10-11T23:15:07.871Z,3.50
2022-10-11T23:17:34.523Z,3.25
2022-10-11T23:20:01.284Z,4.45
2022-10-11T23:22:28.078Z,3.28
2022-10-11T23:24:54.496Z,3.47
2022-10-11T23:27:21.038Z,4.05
2022-10-11T23:29:47.488Z,3.45
2022-10-11T23:32:13.906Z,3.70
2022-10-11T23:34:40.351Z,3.50
2022-10-11T23:37:06.828Z,3.45
2022-10-11T23:39:33.229Z,3.65
2022-10-11T23:41:59.586Z,3.78
2022-10-11T23:44:26.040Z,3.88
2022-10-11T23:46:52.465Z,4.28
2022-10-11T23:49:18.883Z,3.97
2022-10-11T23:51:45.245Z,4.50
2022-10-11T23:54:11.801Z,4.07
2022-10-11T23:56:38.282Z,3.80
2022-10-11T23:59:04.705Z,3.90
